createdAt,value
2018-02-24T00:00:29.623Z,58.67
2018-02-24T00:02:57.617Z,58.47
2018-02-24T00:05:25.587Z,58.14
2018-02-24T00:07:53.530Z,58.21
2018-02-24T00:10:21.492Z,57.67
2018-02-24T00:12:49.514Z,57.33
2018-02-24T00:15:17.533Z,57.94
2018-02-24T00:17:45.514Z,57.49
2018-02-24T00:20:13.615Z,56.99
2018-02-24T00:22:43.613Z,58.17
2018-02-24T00:25:11.616Z,58.29
2018-02-24T00:27:39.582Z,57.38
2018-02-24T00:30:07.606Z,57.28
2018-02-24T00:32:35.594Z,56.78
2018-02-24T00:35:03.607Z,56.39
2018-02-24T00:37:31.565Z,56.67
2018-02-24T00:39:59.623Z,56.86
2018-02-24T00:42:27.666Z,56.88
2018-02-24T00:44:55.590Z,56.24
2018-02-24T00:47:23.556Z,56.71
2018-02-24T00:49:51.606Z,58.53
2018-02-24T00:52:20.216Z,57.99
2018-02-24T00:54:48.167Z,56.96
2018-02-24T00:57:16.239Z,57.11
2018-02-24T00:59:44.217Z,58.49
2018-02-24T01:02:12.238Z,57.69
2018-02-24T01:04:40.340Z,57.81
2018-02-24T01:07:08.335Z,57.66
2018-02-24T01:09:36.238Z,57.27
2018-02-24T01:12:04.304Z,57.67
2018-02-24T01:14:32.319Z,57.62
2018-02-24T01:17:00.302Z,57.73
2018-02-24T01:19:28.252Z,58.69
2018-02-24T01:21:56.247Z,57.74
2018-02-24T01:24:24.226Z,57.28
2018-02-24T01:26:52.197Z,57.19
2018-02-24T01:29:20.159Z,58.33
2018-02-24T01:31:48.146Z,57.33
2018-02-24T01:34:16.123Z,57.63
2018-02-24T01:36:44.114Z,59.18
2018-02-24T01:39:12.162Z,59.45
2018-02-24T01:41:40.153Z,59.20
2018-02-24T01:44:08.169Z,58.39
2018-02-24T01:46:36.162Z,58.09
2018-02-24T01:49:04.116Z,57.60
2018-02-24T01:51:32.091Z,57.52
2018-02-24T01:54:00.434Z,57.00
2018-02-24T01:56:28.442Z,57.06
2018-02-24T01:58:56.481Z,57.47
2018-02-24T02:01:24.481Z,57.76
2018-02-24T02:03:52.443Z,59.07
2018-02-24T02:06:20.522Z,58.86
2018-02-24T02:08:48.578Z,59.32
2018-02-24T02:11:16.599Z,58.86
2018-02-24T02:13:44.565Z,58.90
2018-02-24T02:16:12.547Z,58.65
2018-02-24T02:18:40.477Z,58.60
2018-02-24T02:21:08.425Z,58.52
2018-02-24T02:23:36.421Z,58.13
2018-02-24T02:26:04.469Z,58.86
2018-02-24T02:28:32.575Z,58.40
2018-02-24T02:31:00.612Z,58.29
2018-02-24T02:33:28.609Z,58.37
2018-02-24T02:35:56.536Z,58.33
2018-02-24T02:38:24.555Z,58.13
2018-02-24T02:40:52.580Z,58.20
2018-02-24T02:43:20.560Z,57.81
2018-02-24T02:45:48.535Z,58.21
2018-02-24T02:48:17.360Z,58.10
2018-02-24T02:50:45.300Z,57.81
2018-02-24T02:53:13.219Z,57.83
2018-02-24T02:55:41.684Z,57.89
2018-02-24T02:58:09.584Z,57.72
2018-02-24T03:00:37.616Z,57.55
2018-02-24T03:03:05.525Z,57.45
2018-02-24T03:05:33.443Z,57.42
2018-02-24T03:08:01.528Z,57.72
2018-02-24T03:10:29.538Z,57.82
2018-02-24T03:12:57.529Z,57.89
2018-02-24T03:15:25.614Z,57.73
2018-02-24T03:17:53.622Z,57.63
2018-02-24T03:20:21.618Z,57.51
2018-02-24T03:22:49.628Z,57.84
2018-02-24T03:25:17.562Z,57.79
2018-02-24T03:27:45.509Z,58.19
2018-02-24T03:30:13.448Z,58.17
2018-02-24T03:32:41.450Z,58.49
2018-02-24T03:35:09.362Z,59.86
2018-02-24T03:37:37.322Z,59.57
2018-02-24T03:40:05.316Z,60.01
2018-02-24T03:42:33.354Z,60.18
2018-02-24T03:45:01.388Z,60.70
2018-02-24T03:47:29.460Z,59.86
2018-02-24T03:49:57.529Z,59.42
2018-02-24T03:52:25.753Z,59.30
2018-02-24T03:54:53.669Z,59.37
2018-02-24T03:57:21.936Z,58.45
2018-02-24T03:59:49.964Z,57.85
2018-02-24T04:02:17.974Z,57.73
2018-02-24T04:04:46.022Z,58.02
2018-02-24T04:07:14.172Z,58.52
2018-02-24T04:09:42.292Z,59.22
2018-02-24T04:12:10.274Z,61.95
2018-02-24T04:14:38.234Z,60.43
2018-02-24T04:17:06.233Z,61.45
2018-02-24T04:19:34.242Z,60.85
2018-02-24T04:22:02.344Z,60.48
2018-02-24T04:24:30.407Z,60.55
2018-02-24T04:26:58.360Z,60.41
2018-02-24T04:29:26.398Z,60.11
2018-02-24T04:31:54.418Z,59.47
2018-02-24T04:34:22.377Z,58.66
2018-02-24T04:36:50.368Z,58.36
2018-02-24T04:39:18.355Z,60.73
2018-02-24T04:41:46.354Z,60.41
2018-02-24T04:44:14.343Z,60.36
2018-02-24T04:46:42.378Z,58.98
2018-02-24T04:49:10.335Z,59.90
2018-02-24T04:51:38.322Z,59.51
2018-02-24T04:54:06.354Z,60.03
2018-02-24T04:56:34.385Z,59.58
2018-02-24T04:59:02.758Z,58.29
2018-02-24T05:01:30.753Z,60.20
2018-02-24T05:03:58.763Z,61.29
2018-02-24T05:06:26.743Z,61.77
2018-02-24T05:08:54.738Z,60.02
2018-02-24T05:11:22.731Z,58.72
2018-02-24T05:13:50.700Z,59.27
2018-02-24T05:16:18.678Z,58.68
2018-02-24T05:18:46.629Z,58.25
2018-02-24T05:21:14.726Z,58.65
2018-02-24T05:23:42.642Z,58.20
2018-02-24T05:26:10.626Z,57.72
2018-02-24T05:28:38.655Z,57.80
2018-02-24T05:31:06.630Z,57.95
2018-02-24T05:33:34.628Z,58.31
2018-02-24T05:36:02.707Z,57.18
2018-02-24T05:38:30.683Z,56.91
2018-02-24T05:40:58.692Z,58.00
2018-02-24T05:43:26.723Z,57.19
2018-02-24T05:45:54.694Z,57.33
2018-02-24T05:48:22.728Z,57.52
2018-02-24T05:50:50.706Z,58.28
2018-02-24T05:53:18.633Z,58.17
2018-02-24T05:55:46.622Z,57.33
2018-02-24T05:58:14.585Z,57.50
2018-02-24T06:00:42.904Z,59.49
2018-02-24T06:03:10.888Z,60.06
2018-02-24T06:05:39.107Z,60.34
2018-02-24T06:08:07.141Z,62.27
2018-02-24T06:10:35.106Z,60.30
2018-02-24T06:13:03.107Z,60.98
2018-02-24T06:15:31.066Z,60.93
2018-02-24T06:17:59.055Z,60.45
2018-02-24T06:20:27.007Z,61.39
2018-02-24T06:22:55.022Z,60.80
2018-02-24T06:25:23.069Z,62.24
2018-02-24T06:27:51.099Z,61.62
2018-02-24T06:30:19.144Z,61.05
2018-02-24T06:32:48.029Z,60.76
2018-02-24T06:35:15.966Z,61.12
2018-02-24T06:37:44.328Z,60.54
2018-02-24T06:40:12.397Z,61.10
2018-02-24T06:42:40.384Z,59.81
2018-02-24T06:45:09.366Z,59.18
2018-02-24T06:47:37.364Z,60.96
2018-02-24T06:50:05.898Z,60.89
2018-02-24T06:52:33.972Z,60.83
2018-02-24T06:55:01.925Z,61.36
2018-02-24T06:57:29.922Z,60.42
2018-02-24T06:59:57.911Z,60.54
2018-02-24T07:02:26.315Z,61.57
2018-02-24T07:04:54.345Z,61.83
2018-02-24T07:07:23.416Z,61.35
2018-02-24T07:09:53.310Z,60.52
2018-02-24T07:12:21.371Z,61.11
2018-02-24T07:14:49.377Z,60.32
2018-02-24T07:17:17.347Z,60.36
2018-02-24T07:19:45.362Z,60.38
2018-02-24T07:22:13.410Z,59.79
2018-02-24T07:24:41.465Z,58.60
2018-02-24T07:27:10.459Z,56.61
2018-02-24T07:32:13.059Z,55.50
2018-02-24T07:34:41.008Z,57.97
2018-02-24T07:37:11.735Z,56.83
2018-02-24T07:39:39.737Z,56.73
2018-02-24T07:42:08.522Z,56.18
2018-02-24T07:44:36.753Z,54.65
2018-02-24T07:47:08.456Z,56.01
2018-02-24T07:49:36.491Z,55.62
2018-02-24T07:52:04.458Z,54.31
2018-02-24T07:54:32.491Z,54.63
2018-02-24T07:57:00.430Z,54.26
2018-02-24T07:59:28.438Z,52.37
2018-02-24T08:01:56.447Z,51.33
2018-02-24T08:04:24.993Z,50.93
2018-02-24T08:06:52.966Z,52.31
2018-02-24T08:09:21.891Z,51.71
2018-02-24T08:11:50.711Z,54.50
2018-02-24T08:14:18.746Z,53.99
2018-02-24T08:16:46.775Z,53.69
2018-02-24T08:19:14.753Z,54.02
2018-02-24T08:21:42.810Z,54.66
2018-02-24T08:24:10.788Z,53.36
2018-02-24T08:26:38.920Z,52.96
2018-02-24T08:29:07.214Z,53.00
2018-02-24T08:31:35.794Z,52.58
2018-02-24T08:34:04.483Z,52.67
2018-02-24T08:36:32.848Z,51.29
2018-02-24T08:39:01.437Z,53.14
2018-02-24T08:41:30.022Z,51.77
2018-02-24T08:43:58.705Z,50.58
2018-02-24T08:46:27.290Z,50.66
2018-02-24T08:48:55.671Z,51.11
2018-02-24T08:51:24.458Z,51.41
2018-02-24T08:53:52.735Z,51.46
2018-02-24T08:56:21.212Z,52.16
2018-02-24T08:58:49.745Z,53.45
2018-02-24T09:01:18.322Z,50.85
2018-02-24T09:03:46.653Z,49.81
2018-02-24T09:06:15.233Z,52.34
2018-02-24T09:08:43.529Z,52.29
2018-02-24T09:11:11.770Z,50.48
2018-02-24T09:13:40.154Z,50.41
2018-02-24T09:16:08.646Z,49.06
2018-02-24T09:18:37.330Z,49.20
2018-02-24T09:21:05.978Z,52.49
2018-02-24T09:23:34.614Z,52.50
2018-02-24T09:26:02.977Z,50.63
2018-02-24T09:28:31.561Z,50.06
2018-02-24T09:30:59.481Z,50.35
2018-02-24T09:33:27.379Z,50.11
2018-02-24T09:35:55.383Z,49.29
2018-02-24T09:38:23.746Z,49.57
2018-02-24T09:40:51.724Z,48.91
2018-02-24T09:43:19.718Z,49.88
2018-02-24T09:45:48.269Z,49.53
2018-02-24T09:48:16.287Z,46.96
2018-02-24T09:50:44.367Z,48.76
2018-02-24T09:53:12.884Z,49.82
2018-02-24T09:55:40.847Z,47.99
2018-02-24T09:58:09.077Z,48.52
2018-02-24T10:00:37.007Z,47.06
2018-02-24T10:03:04.982Z,48.86
2018-02-24T10:05:32.982Z,47.67
2018-02-24T10:08:01.334Z,48.68
2018-02-24T10:10:29.731Z,46.61
2018-02-24T10:12:58.067Z,48.05
2018-02-24T10:15:26.594Z,48.20
2018-02-24T10:17:54.940Z,48.07
2018-02-24T10:20:23.407Z,48.64
2018-02-24T10:22:51.461Z,47.24
2018-02-24T10:25:19.871Z,48.02
2018-02-24T10:27:48.550Z,46.83
2018-02-24T10:30:17.323Z,46.94
2018-02-24T10:32:45.613Z,46.52
2018-02-24T10:35:14.078Z,48.93
2018-02-24T10:37:42.478Z,50.84
2018-02-24T10:40:10.934Z,48.62
2018-02-24T10:42:39.215Z,48.48
2018-02-24T10:45:07.601Z,45.67
2018-02-24T10:47:36.054Z,45.59
2018-02-24T10:50:04.637Z,47.00
2018-02-24T10:52:33.343Z,47.42
2018-02-24T10:55:01.921Z,45.67
2018-02-24T10:57:30.708Z,45.03
2018-02-24T10:59:59.403Z,43.53
2018-02-24T11:02:28.285Z,43.54
2018-02-24T11:04:56.258Z,41.95
2018-02-24T11:07:24.946Z,40.83
2018-02-24T11:09:53.454Z,42.06
2018-02-24T11:12:21.802Z,42.58
2018-02-24T11:14:50.286Z,41.60
2018-02-24T11:17:19.220Z,40.30
2018-02-24T11:19:47.854Z,38.81
2018-02-24T11:22:16.543Z,39.87
2018-02-24T11:24:45.026Z,40.40
2018-02-24T11:27:13.028Z,38.59
2018-02-24T11:29:41.569Z,39.03
2018-02-24T11:32:10.070Z,37.17
2018-02-24T11:34:38.737Z,33.48
2018-02-24T11:37:07.221Z,32.00
2018-02-24T11:39:41.063Z,32.33
2018-02-24T11:42:09.712Z,33.99
2018-02-24T11:44:37.887Z,34.48
2018-02-24T11:47:06.259Z,35.73
2018-02-24T11:49:34.757Z,35.25
2018-02-24T11:52:03.631Z,33.15
2018-02-24T11:54:32.007Z,34.17
2018-02-24T11:57:00.343Z,33.65
2018-02-24T11:59:28.766Z,33.77
2018-02-24T12:01:57.349Z,34.62
2018-02-24T12:04:25.622Z,35.34
2018-02-24T12:06:54.102Z,35.63
2018-02-24T12:09:22.801Z,36.37
2018-02-24T12:11:51.586Z,35.63
2018-02-24T12:14:19.948Z,34.00
2018-02-24T12:16:48.434Z,34.66
2018-02-24T12:19:16.869Z,33.24
2018-02-24T12:21:45.186Z,35.05
2018-02-24T12:24:13.770Z,35.05
2018-02-24T12:26:41.938Z,35.64
2018-02-24T12:29:10.429Z,35.78
2018-02-24T12:31:39.237Z,36.21
2018-02-24T12:34:07.694Z,35.57
2018-02-24T12:36:36.155Z,36.48
2018-02-24T12:39:04.738Z,36.43
2018-02-24T12:41:33.151Z,40.32
2018-02-24T12:44:01.720Z,40.48
2018-02-24T12:46:30.094Z,41.01
2018-02-24T12:48:58.051Z,41.06
2018-02-24T12:51:25.970Z,40.45
2018-02-24T12:53:54.035Z,42.58
2018-02-24T12:56:22.008Z,39.49
2018-02-24T12:58:50.021Z,40.51
2018-02-24T13:01:17.934Z,39.80
2018-02-24T13:03:45.899Z,40.61
2018-02-24T13:06:13.861Z,40.83
2018-02-24T13:08:41.786Z,40.24
2018-02-24T13:11:09.781Z,40.27
2018-02-24T13:13:38.059Z,39.88
2018-02-24T13:16:05.988Z,41.05
2018-02-24T13:18:33.945Z,40.26
2018-02-24T13:21:01.934Z,40.29
2018-02-24T13:23:30.753Z,42.29
2018-02-24T13:25:59.437Z,41.36
2018-02-24T13:28:28.017Z,40.43
2018-02-24T13:30:56.394Z,41.92
2018-02-24T13:33:24.874Z,41.33
2018-02-24T13:35:53.234Z,41.30
2018-02-24T13:38:21.685Z,41.04
2018-02-24T13:40:50.538Z,42.73
2018-02-24T13:43:19.002Z,42.98
2018-02-24T13:45:47.668Z,43.40
2018-02-24T13:48:16.333Z,43.93
2018-02-24T13:50:44.850Z,45.14
2018-02-24T13:53:13.347Z,45.07
2018-02-24T13:55:41.810Z,44.07
2018-02-24T13:58:10.293Z,43.45
2018-02-24T14:00:38.857Z,44.30
2018-02-24T14:03:07.444Z,44.91
2018-02-24T14:05:36.247Z,44.26
2018-02-24T14:08:04.607Z,44.58
2018-02-24T14:10:32.798Z,43.67
2018-02-24T14:13:01.279Z,44.06
2018-02-24T14:15:30.115Z,43.53
2018-02-24T14:17:58.750Z,45.23
2018-02-24T14:20:27.234Z,46.23
2018-02-24T14:22:55.719Z,45.66
2018-02-24T14:25:24.398Z,45.45
2018-02-24T14:27:52.979Z,45.12
2018-02-24T14:30:21.771Z,45.93
2018-02-24T14:32:50.229Z,45.62
2018-02-24T14:35:18.943Z,45.00
2018-02-24T14:37:47.415Z,46.07
2018-02-24T14:40:15.607Z,47.50
2018-02-24T14:42:43.555Z,47.81
2018-02-24T14:45:11.523Z,47.70
2018-02-24T14:47:39.465Z,49.07
2018-02-24T14:50:07.502Z,48.82
2018-02-24T14:52:35.482Z,47.77
2018-02-24T14:55:03.458Z,48.42
2018-02-24T14:57:31.462Z,49.03
2018-02-24T14:59:59.453Z,49.52
2018-02-24T15:02:27.445Z,50.78
2018-02-24T15:04:55.387Z,50.41
2018-02-24T15:07:23.391Z,51.43
2018-02-24T15:09:51.326Z,51.17
2018-02-24T15:12:19.298Z,51.72
2018-02-24T15:14:47.362Z,51.67
2018-02-24T15:17:15.730Z,52.24
2018-02-24T15:19:43.713Z,52.23
2018-02-24T15:22:11.817Z,53.87
2018-02-24T15:24:39.843Z,54.79
2018-02-24T15:27:07.808Z,54.80
2018-02-24T15:29:35.772Z,53.98
2018-02-24T15:32:03.702Z,54.35
2018-02-24T15:34:31.662Z,53.86
2018-02-24T15:36:59.698Z,52.33
2018-02-24T15:39:27.710Z,53.24
2018-02-24T15:41:55.742Z,52.11
2018-02-24T15:44:23.729Z,53.04
2018-02-24T15:46:51.786Z,52.42
2018-02-24T15:49:19.793Z,53.78
2018-02-24T15:51:48.913Z,53.38
2018-02-24T15:54:16.922Z,53.94
2018-02-24T15:56:44.998Z,54.38
2018-02-24T15:59:13.031Z,54.92
2018-02-24T16:01:41.103Z,55.21
2018-02-24T16:04:09.126Z,56.33
2018-02-24T16:06:37.093Z,55.57
2018-02-24T16:09:05.030Z,56.48
2018-02-24T16:11:32.994Z,55.84
2018-02-24T16:14:01.012Z,56.24
2018-02-24T16:16:29.121Z,58.03
2018-02-24T16:18:57.595Z,58.72
2018-02-24T16:21:25.585Z,58.64
2018-02-24T16:23:53.549Z,58.35
2018-02-24T16:26:21.691Z,56.57
2018-02-24T16:28:49.693Z,56.18
2018-02-24T16:31:17.674Z,56.08
2018-02-24T16:33:45.514Z,56.55
2018-02-24T16:36:13.521Z,56.23
2018-02-24T16:38:41.442Z,56.11
2018-02-24T16:41:09.325Z,54.02
2018-02-24T16:43:37.292Z,53.92
2018-02-24T16:46:05.321Z,54.24
2018-02-24T16:48:33.289Z,54.18
2018-02-24T16:51:01.306Z,54.36
2018-02-24T16:53:29.350Z,53.92
2018-02-24T16:55:57.308Z,54.69
2018-02-24T16:58:25.440Z,55.27
2018-02-24T17:00:53.455Z,55.34
2018-02-24T17:03:21.469Z,55.17
2018-02-24T17:05:49.458Z,55.05
2018-02-24T17:08:17.479Z,54.65
2018-02-24T17:10:45.441Z,54.52
2018-02-24T17:13:13.346Z,54.18
2018-02-24T17:15:41.361Z,54.54
2018-02-24T17:21:41.732Z,54.09
2018-02-24T17:24:09.769Z,54.49
2018-02-24T17:26:37.782Z,53.90
2018-02-24T17:29:05.809Z,55.07
2018-02-24T17:31:33.923Z,58.90
2018-02-24T17:34:01.958Z,59.45
2018-02-24T17:36:29.926Z,58.66
2018-02-24T17:38:57.974Z,57.23
2018-02-24T17:41:25.989Z,57.54
2018-02-24T17:43:54.064Z,57.16
2018-02-24T17:46:22.111Z,57.33
2018-02-24T17:48:50.116Z,56.45
2018-02-24T17:51:18.120Z,56.97
2018-02-24T17:53:50.015Z,56.78
2018-02-24T17:56:21.326Z,56.62
2018-02-24T17:58:50.754Z,56.79
2018-02-24T18:01:19.352Z,57.01
2018-02-24T18:03:48.471Z,56.59
2018-02-24T18:06:16.484Z,56.55
2018-02-24T18:08:44.474Z,56.88
2018-02-24T18:11:12.452Z,56.93
2018-02-24T18:13:40.516Z,57.37
2018-02-24T18:16:08.522Z,56.96
2018-02-24T18:18:36.518Z,57.08
2018-02-24T18:21:04.490Z,57.38
2018-02-24T18:23:32.828Z,58.27
2018-02-24T18:26:00.833Z,58.44
2018-02-24T18:28:28.762Z,57.86
2018-02-24T18:30:56.824Z,57.80
2018-02-24T18:33:24.817Z,57.53
2018-02-24T18:35:52.697Z,57.38
2018-02-24T18:38:20.745Z,58.12
2018-02-24T18:40:48.667Z,57.27
2018-02-24T18:43:16.722Z,59.66
2018-02-24T18:45:44.729Z,59.41
2018-02-24T18:48:12.820Z,59.91
2018-02-24T18:50:40.789Z,59.37
2018-02-24T18:53:08.797Z,59.39
2018-02-24T18:55:36.718Z,59.58
2018-02-24T18:58:04.657Z,59.22
2018-02-24T19:00:32.597Z,59.09
2018-02-24T19:03:00.644Z,59.16
2018-02-24T19:05:28.655Z,58.64
2018-02-24T19:07:56.598Z,59.88
2018-02-24T19:10:24.586Z,59.14
2018-02-24T19:12:52.611Z,60.44
2018-02-24T19:15:20.618Z,59.75
2018-02-24T19:17:48.625Z,61.00
2018-02-24T19:20:16.626Z,60.20
2018-02-24T19:22:44.675Z,61.36
2018-02-24T19:25:13.161Z,63.64
2018-02-24T19:27:41.104Z,62.47
2018-02-24T19:30:09.272Z,62.11
2018-02-24T19:32:37.234Z,60.47
2018-02-24T19:35:05.197Z,59.07
2018-02-24T19:37:33.176Z,58.92
2018-02-24T19:40:01.162Z,58.92
2018-02-24T19:42:29.127Z,59.71
2018-02-24T19:44:57.064Z,60.95
2018-02-24T19:47:25.032Z,61.25
2018-02-24T19:49:53.011Z,61.30
2018-02-24T19:52:21.490Z,61.61
2018-02-24T19:54:49.463Z,61.13
2018-02-24T19:57:17.504Z,62.66
2018-02-24T19:59:45.478Z,61.46
2018-02-24T20:02:14.365Z,61.33
2018-02-24T20:04:42.927Z,60.98
2018-02-24T20:07:10.913Z,61.32
2018-02-24T20:09:38.883Z,60.55
2018-02-24T20:12:06.814Z,62.76
2018-02-24T20:14:34.766Z,63.54
2018-02-24T20:17:03.426Z,63.15
2018-02-24T20:19:31.485Z,63.44
2018-02-24T20:21:59.413Z,65.33
2018-02-24T20:24:27.398Z,66.19
2018-02-24T20:26:55.935Z,65.99
2018-02-24T20:29:23.912Z,66.44
2018-02-24T20:31:51.918Z,64.20
2018-02-24T20:34:19.890Z,62.71
2018-02-24T20:36:47.913Z,62.40
2018-02-24T20:39:16.360Z,63.27
2018-02-24T20:41:44.407Z,64.41
2018-02-24T20:44:12.328Z,64.52
2018-02-24T20:46:40.279Z,63.99
2018-02-24T20:49:08.321Z,63.28
2018-02-24T20:51:36.347Z,62.46
2018-02-24T20:54:04.318Z,62.26
2018-02-24T20:56:32.302Z,62.06
2018-02-24T20:59:00.268Z,62.92
2018-02-24T21:01:28.279Z,62.53
2018-02-24T21:03:57.261Z,62.26
2018-02-24T21:06:25.298Z,62.07
2018-02-24T21:08:54.177Z,62.44
2018-02-24T21:11:22.138Z,63.17
2018-02-24T21:13:50.218Z,62.72
2018-02-24T21:16:18.597Z,63.24
2018-02-24T21:18:46.884Z,64.82
2018-02-24T21:21:17.504Z,64.76
2018-02-24T21:23:46.912Z,62.96
2018-02-24T21:26:16.088Z,62.21
2018-02-24T21:28:45.385Z,61.57
2018-02-24T21:33:46.556Z,62.50
2018-02-24T21:36:15.020Z,62.15
2018-02-24T21:38:43.269Z,61.66
2018-02-24T21:41:11.904Z,61.93
2018-02-24T21:43:44.592Z,61.69
2018-02-24T21:46:14.784Z,61.68
2018-02-24T21:48:43.532Z,60.58
2018-02-24T21:51:13.077Z,59.39
2018-02-24T21:53:41.894Z,59.85
2018-02-24T21:56:11.574Z,58.02
2018-02-24T21:58:40.196Z,57.30
2018-02-24T22:01:08.786Z,57.24
2018-02-24T22:03:37.346Z,56.80
2018-02-24T22:06:05.628Z,56.40
2018-02-24T22:08:36.433Z,56.22
2018-02-24T22:11:05.151Z,56.57
2018-02-24T22:13:34.858Z,56.07
2018-02-24T22:16:03.226Z,56.16
2018-02-24T22:18:31.826Z,56.72
2018-02-24T22:21:00.576Z,56.32
2018-02-24T22:23:29.364Z,56.41
2018-02-24T22:25:58.169Z,55.32
2018-02-24T22:28:26.583Z,54.86
2018-02-24T22:30:54.954Z,54.61
2018-02-24T22:33:22.897Z,56.72
2018-02-24T22:35:51.560Z,56.30
2018-02-24T22:38:19.573Z,56.63
2018-02-24T22:40:48.039Z,57.64
2018-02-24T22:43:16.217Z,54.95
2018-02-24T22:45:44.390Z,57.12
2018-02-24T22:48:18.020Z,57.20
2018-02-24T22:50:46.565Z,59.38
2018-02-24T22:53:14.632Z,57.15
2018-02-24T22:55:43.301Z,58.12
2018-02-24T22:58:11.434Z,60.86
2018-02-24T23:00:39.543Z,60.68
2018-02-24T23:03:07.527Z,59.14
2018-02-24T23:05:35.461Z,58.81
2018-02-24T23:08:03.429Z,65.65
2018-02-24T23:10:31.362Z,67.98
2018-02-24T23:12:59.249Z,68.99
2018-02-24T23:15:27.181Z,69.35
2018-02-24T23:17:55.102Z,68.32
2018-02-24T23:20:23.038Z,66.78
2018-02-24T23:22:50.963Z,65.57
2018-02-24T23:25:18.883Z,66.02
2018-02-24T23:27:46.802Z,67.21
2018-02-24T23:30:14.737Z,67.08
2018-02-24T23:32:43.250Z,67.36
2018-02-24T23:35:11.183Z,67.40
2018-02-24T23:37:39.132Z,68.65
2018-02-24T23:40:07.116Z,67.25
2018-02-24T23:42:35.063Z,66.45
2018-02-24T23:45:03.088Z,65.45
2018-02-24T23:47:31.062Z,64.83
2018-02-24T23:49:59.031Z,67.18
2018-02-24T23:52:26.906Z,68.14
2018-02-24T23:54:54.850Z,69.73
2018-02-24T23:57:22.890Z,72.32
2018-02-24T23:59:50.769Z,71.72
